createdAt,value
2016-04-18T00:00:42.552Z,68.54
2016-04-18T00:01:42.601Z,68.16
2016-04-18T00:02:42.604Z,68.23
2016-04-18T00:03:42.654Z,68.64
2016-04-18T00:04:42.672Z,68.44
2016-04-18T00:05:42.707Z,68.35
2016-04-18T00:06:42.756Z,68.35
2016-04-18T00:07:42.790Z,68.64
2016-04-18T00:08:42.809Z,68.51
2016-04-18T00:09:42.842Z,68.35
2016-04-18T00:10:42.876Z,68.64
2016-04-18T00:11:42.894Z,68.6
2016-04-18T00:12:42.928Z,68.89
2016-04-18T00:13:42.961Z,68.79
2016-04-18T00:14:42.995Z,69.4
2016-04-18T00:15:43.051Z,69.27
2016-04-18T00:16:43.127Z,69.3
2016-04-18T00:17:43.189Z,69.08
2016-04-18T00:18:43.281Z,69.36
2016-04-18T00:19:43.343Z,69.17
2016-04-18T00:20:43.406Z,69.27
2016-04-18T00:21:43.518Z,69.36
2016-04-18T00:22:43.489Z,69.65
2016-04-18T00:23:43.538Z,69.65
2016-04-18T00:24:43.589Z,69.93
2016-04-18T00:25:43.633Z,69.74
2016-04-18T00:26:43.672Z,70.31
2016-04-18T00:27:43.712Z,71.17
2016-04-18T00:28:43.752Z,70.59
2016-04-18T00:29:43.776Z,71.07
2016-04-18T00:30:43.814Z,70.69
2016-04-18T00:31:43.834Z,70.4
2016-04-18T00:32:43.901Z,70.5
2016-04-18T00:33:43.906Z,70.4
2016-04-18T00:34:43.941Z,70.4
2016-04-18T00:35:43.976Z,70.31
2016-04-18T00:36:44.011Z,70.21
2016-04-18T00:37:44.030Z,70.03
2016-04-18T00:38:44.128Z,70.31
2016-04-18T00:39:44.115Z,69.93
2016-04-18T00:40:44.134Z,69.93
2016-04-18T00:41:44.184Z,69.74
2016-04-18T00:42:44.203Z,69.93
2016-04-18T00:43:44.222Z,70.21
2016-04-18T00:44:44.256Z,70.59
2016-04-18T00:45:44.306Z,70.59
2016-04-18T00:46:44.339Z,70.69
2016-04-18T00:47:44.358Z,70.59
2016-04-18T00:48:44.376Z,70.69
2016-04-18T00:49:44.411Z,70.78
2016-04-18T00:50:44.445Z,70.69
2016-04-18T00:51:44.478Z,70.78
2016-04-18T00:52:44.513Z,70.69
2016-04-18T00:53:44.561Z,71.17
2016-04-18T00:54:44.580Z,71.17
2016-04-18T00:55:44.599Z,71.07
2016-04-18T00:56:44.633Z,70.98
2016-04-18T00:57:44.666Z,70.78
2016-04-18T00:58:44.700Z,71.17
2016-04-18T00:59:44.735Z,71.07
2016-04-18T01:00:44.753Z,71.45
2016-04-18T01:01:44.787Z,70.98
2016-04-18T01:02:44.821Z,70.78
2016-04-18T01:03:44.870Z,71.45
2016-04-18T01:04:44.888Z,71.26
2016-04-18T01:05:44.923Z,70.88
2016-04-18T01:06:44.941Z,71.36
2016-04-18T01:07:44.974Z,71.55
2016-04-18T01:08:45.024Z,72.4
2016-04-18T01:09:45.042Z,72.88
2016-04-18T01:10:45.076Z,72.78
2016-04-18T01:11:45.095Z,73.22
2016-04-18T01:12:45.145Z,73.69
2016-04-18T01:13:45.162Z,73.12
2016-04-18T01:14:45.197Z,73.12
2016-04-18T01:15:45.230Z,73.22
2016-04-18T01:16:45.264Z,72.64
2016-04-18T01:17:45.298Z,73.12
2016-04-18T01:18:45.332Z,72.78
2016-04-18T01:19:45.367Z,73.03
2016-04-18T01:20:45.384Z,73.6
2016-04-18T01:21:45.418Z,73.5
2016-04-18T01:22:45.453Z,73.5
2016-04-18T01:23:45.486Z,73.12
2016-04-18T01:24:45.519Z,73.22
2016-04-18T01:25:45.539Z,73.31
2016-04-18T01:26:45.573Z,73.12
2016-04-18T01:27:45.606Z,73.22
2016-04-18T01:28:45.641Z,73.31
2016-04-18T01:29:45.658Z,73.5
2016-04-18T01:30:45.693Z,73.88
2016-04-18T01:31:45.727Z,74.45
2016-04-18T01:32:45.760Z,73.97
2016-04-18T01:33:45.794Z,73.41
2016-04-18T01:34:45.829Z,73.5
2016-04-18T01:35:45.847Z,73.97
2016-04-18T01:36:45.896Z,73.6
2016-04-18T01:37:45.915Z,73.5
2016-04-18T01:38:45.964Z,72.97
2016-04-18T01:39:45.982Z,72.68
2016-04-18T01:40:46.016Z,72.68
2016-04-18T01:41:46.035Z,72.97
2016-04-18T01:42:46.068Z,72.88
2016-04-18T01:43:46.103Z,73.63
2016-04-18T01:44:46.137Z,73.6
2016-04-18T01:45:46.171Z,73.5
2016-04-18T01:46:46.189Z,73.22
2016-04-18T01:47:46.223Z,73.69
2016-04-18T01:48:46.256Z,73.69
2016-04-18T01:49:46.275Z,73.79
2016-04-18T01:50:46.324Z,74.07
2016-04-18T01:51:46.342Z,74.83
2016-04-18T01:52:46.377Z,74.45
2016-04-18T01:53:46.411Z,74.83
2016-04-18T01:54:46.444Z,75.21
2016-04-18T01:55:46.478Z,75.31
2016-04-18T01:56:46.513Z,74.73
2016-04-18T01:57:46.547Z,75.02
2016-04-18T01:58:46.565Z,74.64
2016-04-18T01:59:46.599Z,75.11
2016-04-18T02:00:46.632Z,75.02
2016-04-18T02:01:46.666Z,75.68
2016-04-18T02:02:46.701Z,75.31
2016-04-18T02:03:46.734Z,75.31
2016-04-18T02:04:46.753Z,75.68
2016-04-18T02:05:46.787Z,76.06
2016-04-18T02:06:46.820Z,75.96
2016-04-18T02:07:46.854Z,75.02
2016-04-18T02:08:46.874Z,75.02
2016-04-18T02:09:46.938Z,75.68
2016-04-18T02:10:46.940Z,75.78
2016-04-18T02:11:46.975Z,75.11
2016-04-18T02:12:47.009Z,75.31
2016-04-18T02:13:47.027Z,74.64
2016-04-18T02:14:47.076Z,74.64
2016-04-18T02:15:47.095Z,75.02
2016-04-18T02:16:47.129Z,75.21
2016-04-18T02:17:47.162Z,75.11
2016-04-18T02:18:47.197Z,75.31
2016-04-18T02:19:47.231Z,75.21
2016-04-18T02:20:47.250Z,74.83
2016-04-18T02:21:47.283Z,74.45
2016-04-18T02:22:47.317Z,75.02
2016-04-18T02:23:47.350Z,74.64
2016-04-18T02:24:47.369Z,74.73
2016-04-18T02:25:47.418Z,75.02
2016-04-18T02:26:47.437Z,75.02
2016-04-18T02:27:47.471Z,75.11
2016-04-18T02:28:47.505Z,74.54
2016-04-18T02:29:47.539Z,74.73
2016-04-18T02:30:47.572Z,75.02
2016-04-18T02:31:47.591Z,74.73
2016-04-18T02:32:47.625Z,74.73
2016-04-18T02:33:47.643Z,74.73
2016-04-18T02:34:47.677Z,74.35
2016-04-18T02:35:47.711Z,75.02
2016-04-18T02:36:47.745Z,75.31
2016-04-18T02:37:47.779Z,75.21
2016-04-18T02:38:47.797Z,75.21
2016-04-18T02:39:47.832Z,75.11
2016-04-18T02:40:47.882Z,75.78
2016-04-18T02:41:47.899Z,76.06
2016-04-18T02:42:47.934Z,74.98
2016-04-18T02:43:47.967Z,75.4
2016-04-18T02:44:48.016Z,75.4
2016-04-18T02:45:48.034Z,75.4
2016-04-18T02:46:48.053Z,75.02
2016-04-18T02:47:48.087Z,75.31
2016-04-18T02:48:48.120Z,75.02
2016-04-18T02:49:48.155Z,75.21
2016-04-18T02:50:48.173Z,75.74
2016-04-18T02:51:48.223Z,75.02
2016-04-18T02:52:48.241Z,75.21
2016-04-18T02:53:48.259Z,75.59
2016-04-18T02:54:48.294Z,76.03
2016-04-18T02:55:48.344Z,76.21
2016-04-18T02:56:48.361Z,76.4
2016-04-18T02:57:48.395Z,76.31
2016-04-18T02:58:48.413Z,76.06
2016-04-18T02:59:48.464Z,75.21
2016-04-18T03:00:48.481Z,75.21
2016-04-18T03:01:48.516Z,75.02
2016-04-18T03:02:48.533Z,74.45
2016-04-18T03:03:48.568Z,75.4
2016-04-18T03:04:48.601Z,74.35
2016-04-18T03:05:48.635Z,74.92
2016-04-18T03:06:48.669Z,75.11
2016-04-18T03:07:48.704Z,75.4
2016-04-18T03:08:48.738Z,75.31
2016-04-18T03:09:48.757Z,75.4
2016-04-18T03:10:48.790Z,74.92
2016-04-18T03:11:48.824Z,74.83
2016-04-18T03:12:48.857Z,75.4
2016-04-18T03:13:48.876Z,75.31
2016-04-18T03:14:48.910Z,75.21
2016-04-18T03:15:48.788Z,75.31
2016-04-18T03:16:48.978Z,75.21
2016-04-18T03:17:49.012Z,75.74
2016-04-18T03:18:49.046Z,75.07
2016-04-18T03:19:49.064Z,75.21
2016-04-18T03:20:49.114Z,76.15
2016-04-18T03:21:49.131Z,75.84
2016-04-18T03:22:49.166Z,75.74
2016-04-18T03:23:49.200Z,75.84
2016-04-18T03:24:49.218Z,75.74
2016-04-18T03:25:49.252Z,76.03
2016-04-18T03:26:49.286Z,75.84
2016-04-18T03:27:49.319Z,76.21
2016-04-18T03:28:49.353Z,76.21
2016-04-18T03:29:49.387Z,76.97
2016-04-18T03:30:49.405Z,76.59
2016-04-18T03:31:49.440Z,76.59
2016-04-18T03:32:49.474Z,76.21
2016-04-18T03:33:49.492Z,76.5
2016-04-18T03:34:49.526Z,76.59
2016-04-18T03:35:49.560Z,76.59
2016-04-18T03:36:49.578Z,76.97
2016-04-18T03:37:49.612Z,76.97
2016-04-18T03:38:49.662Z,77.16
2016-04-18T03:39:49.680Z,77.06
2016-04-18T03:40:49.715Z,76.59
2016-04-18T03:41:49.732Z,77.45
2016-04-18T03:42:49.782Z,76.4
2016-04-18T03:43:49.801Z,76.59
2016-04-18T03:44:49.834Z,77.16
2016-04-18T03:45:49.868Z,76.4
2016-04-18T03:46:49.901Z,76.97
2016-04-18T03:47:49.937Z,77.25
2016-04-18T03:48:49.954Z,77.45
2016-04-18T03:49:49.989Z,77.73
2016-04-18T03:50:50.037Z,76.87
2016-04-18T03:51:50.040Z,77.16
2016-04-18T03:52:50.075Z,76.97
2016-04-18T03:53:50.108Z,76.87
2016-04-18T03:54:50.142Z,77.35
2016-04-18T03:55:50.175Z,77.45
2016-04-18T03:56:50.210Z,77.16
2016-04-18T03:57:50.228Z,77.54
2016-04-18T03:58:50.278Z,77.45
2016-04-18T03:59:50.297Z,77.83
2016-04-18T04:00:50.314Z,78.3
2016-04-18T04:01:50.364Z,78.2
2016-04-18T04:02:50.383Z,78.67
2016-04-18T04:03:50.417Z,78.3
2016-04-18T04:04:50.450Z,78.3
2016-04-18T04:05:50.469Z,78.02
2016-04-18T04:06:50.502Z,78.2
2016-04-18T04:07:50.537Z,77.73
2016-04-18T04:08:50.571Z,78.39
2016-04-18T04:09:50.588Z,77.64
2016-04-18T04:10:50.623Z,78.02
2016-04-18T04:11:50.657Z,78.11
2016-04-18T04:12:50.691Z,78.2
2016-04-18T04:13:50.709Z,78.2
2016-04-18T04:14:50.743Z,78.77
2016-04-18T04:15:50.777Z,78.2
2016-04-18T04:16:50.795Z,78.2
2016-04-18T04:17:50.845Z,78.2
2016-04-18T04:18:50.863Z,78.49
2016-04-18T04:19:50.897Z,78.67
2016-04-18T04:20:50.931Z,78.58
2016-04-18T04:21:50.792Z,78.67
2016-04-18T04:22:50.984Z,78.2
2016-04-18T04:23:51.017Z,78.58
2016-04-18T04:24:51.051Z,78.49
2016-04-18T04:25:51.070Z,78.11
2016-04-18T04:26:51.103Z,78.67
2016-04-18T04:27:51.137Z,78.67
2016-04-18T04:28:51.155Z,78.77
2016-04-18T04:29:51.206Z,78.67
2016-04-18T04:30:51.239Z,79.34
2016-04-18T04:31:51.258Z,79.53
2016-04-18T04:32:51.291Z,79.44
2016-04-18T04:33:51.310Z,78.87
2016-04-18T04:34:51.360Z,79.25
2016-04-18T04:35:51.377Z,79.25
2016-04-18T04:36:51.411Z,79.25
2016-04-18T04:37:51.429Z,78.96
2016-04-18T04:38:51.463Z,78.58
2016-04-18T04:39:51.498Z,78.87
2016-04-18T04:40:51.532Z,78.58
2016-04-18T04:41:51.566Z,78.67
2016-04-18T04:42:51.599Z,78.58
2016-04-18T04:43:51.618Z,78.67
2016-04-18T04:44:51.651Z,78.77
2016-04-18T04:45:51.685Z,78.67
2016-04-18T04:46:51.719Z,78.87
2016-04-18T04:47:51.736Z,78.96
2016-04-18T04:48:51.771Z,78.77
2016-04-18T04:49:51.805Z,78.58
2016-04-18T04:50:51.839Z,78.39
2016-04-18T04:51:51.858Z,77.83
2016-04-18T04:52:51.891Z,77.73
2016-04-18T04:53:51.928Z,77.92
2016-04-18T04:54:51.946Z,78.2
2016-04-18T04:55:51.996Z,77.54
2016-04-18T04:56:52.014Z,78.02
2016-04-18T04:57:52.048Z,77.83
2016-04-18T04:58:52.082Z,77.73
2016-04-18T04:59:52.100Z,78.3
2016-04-18T05:00:52.134Z,77.92
2016-04-18T05:01:52.168Z,78.02
2016-04-18T05:02:52.201Z,78.02
2016-04-18T05:03:52.220Z,78.2
2016-04-18T05:04:52.254Z,77.73
2016-04-18T05:05:52.288Z,77.83
2016-04-18T05:06:52.307Z,76.78
2016-04-18T05:07:52.200Z,77.06
2016-04-18T05:08:52.531Z,76.4
2016-04-18T05:09:52.423Z,77.35
2016-04-18T05:10:52.442Z,76.97
2016-04-18T05:11:52.476Z,76.4
2016-04-18T05:12:52.494Z,77.25
2016-04-18T05:13:52.528Z,76.63
2016-04-18T05:14:52.562Z,76.25
2016-04-18T05:15:52.597Z,75.96
2016-04-18T05:16:52.630Z,75.59
2016-04-18T05:17:52.648Z,75.31
2016-04-18T05:18:52.682Z,73.69
2016-04-18T05:19:52.716Z,73.88
2016-04-18T05:20:52.750Z,73.5
2016-04-18T05:21:52.628Z,73.44
2016-04-18T05:22:52.802Z,74.07
2016-04-18T05:23:52.836Z,74.26
2016-04-18T05:24:52.886Z,73.88
2016-04-18T05:25:52.888Z,72.88
2016-04-18T05:26:52.922Z,71.92
2016-04-18T05:27:52.956Z,71.55
2016-04-18T05:28:52.990Z,71.64
2016-04-18T05:29:53.014Z,71.36
2016-04-18T05:30:53.049Z,71.3
2016-04-18T05:31:53.083Z,69.96
2016-04-18T05:32:53.116Z,67.97
2016-04-18T05:33:53.150Z,66.01
2016-04-18T05:34:53.168Z,63.39
2016-04-18T05:35:53.202Z,60.75
2016-04-18T05:36:53.252Z,58.69
2016-04-18T05:37:53.286Z,58.88
2016-04-18T05:38:53.305Z,59.74
2016-04-18T05:39:53.448Z,59.71
2016-04-18T05:40:53.357Z,61.13
2016-04-18T05:41:53.390Z,61.8
2016-04-18T05:42:53.424Z,63.32
2016-04-18T05:43:53.458Z,63.67
2016-04-18T05:44:53.492Z,63.1
2016-04-18T05:45:53.511Z,63.76
2016-04-18T05:46:53.544Z,65.19
2016-04-18T05:47:53.579Z,64.9
2016-04-18T05:48:53.612Z,65.16
2016-04-18T05:49:53.647Z,65.25
2016-04-18T05:50:53.680Z,66.11
2016-04-18T05:51:53.714Z,66.11
2016-04-18T05:52:53.748Z,66.77
2016-04-18T05:53:53.783Z,66.58
2016-04-18T05:54:53.817Z,67.44
2016-04-18T05:55:53.851Z,67.63
2016-04-18T05:56:53.884Z,67.72
2016-04-18T05:57:53.903Z,67.44
2016-04-18T05:58:53.936Z,66.11
2016-04-18T05:59:53.970Z,65.44
2016-04-18T06:00:54.004Z,65.19
2016-04-18T06:01:54.038Z,65.28
2016-04-18T06:02:54.072Z,65.16
2016-04-18T06:03:54.106Z,64.81
2016-04-18T06:04:54.141Z,64.14
2016-04-18T06:05:54.174Z,63.1
2016-04-18T06:06:54.193Z,62.46
2016-04-18T06:07:54.241Z,61.42
2016-04-18T06:08:54.260Z,60.85
2016-04-18T06:09:54.293Z,59.83
2016-04-18T06:10:54.359Z,60.47
2016-04-18T06:11:54.362Z,60.47
2016-04-18T06:12:54.396Z,60.28
2016-04-18T06:13:54.446Z,59.45
2016-04-18T06:14:54.464Z,59.07
2016-04-18T06:15:54.482Z,57.67
2016-04-18T06:16:54.515Z,56.44
2016-04-18T06:17:54.566Z,55.13
2016-04-18T06:18:54.600Z,53.25
2016-04-18T06:19:54.634Z,51.56
2016-04-18T06:20:54.667Z,50.52
2016-04-18T06:21:54.701Z,49.47
2016-04-18T06:22:54.719Z,49.85
2016-04-18T06:23:54.769Z,49.59
2016-04-18T06:24:54.975Z,48.73
2016-04-18T06:25:54.837Z,47.87
2016-04-18T06:26:54.856Z,47.42
2016-04-18T06:27:54.889Z,46.47
2016-04-18T06:28:54.939Z,45.22
2016-04-18T06:29:54.973Z,43.74
2016-04-18T06:30:55.007Z,45.08
2016-04-18T06:31:55.025Z,47.23
2016-04-18T06:32:55.074Z,48.16
2016-04-18T06:33:55.109Z,48.35
2016-04-18T06:34:55.127Z,48.35
2016-04-18T06:35:55.177Z,49.21
2016-04-18T06:36:55.211Z,49.85
2016-04-18T06:37:55.260Z,49.95
2016-04-18T06:38:55.278Z,49.11
2016-04-18T06:39:55.422Z,48.63
2016-04-18T06:40:55.346Z,50.35
2016-04-18T06:41:55.380Z,53.25
2016-04-18T06:42:55.430Z,54.37
2016-04-18T06:43:55.448Z,54.94
2016-04-18T06:44:55.498Z,56.46
2016-04-18T06:45:55.531Z,57.87
2016-04-18T06:46:55.565Z,59.64
2016-04-18T06:47:55.599Z,60.21
2016-04-18T06:48:55.634Z,60.12
2016-04-18T06:49:55.668Z,61.71
2016-04-18T06:50:55.701Z,62.94
2016-04-18T06:51:55.735Z,63.51
2016-04-18T06:52:55.769Z,64.14
2016-04-18T06:53:55.803Z,63.67
2016-04-18T06:54:55.947Z,63.79
2016-04-18T06:55:55.871Z,64.05
2016-04-18T06:56:55.905Z,64.14
2016-04-18T06:57:55.939Z,64.34
2016-04-18T06:58:55.972Z,64.24
2016-04-18T06:59:56.022Z,64.56
2016-04-18T07:00:56.040Z,65.09
2016-04-18T07:01:56.090Z,64.72
2016-04-18T07:02:56.108Z,65
2016-04-18T07:03:56.141Z,64.34
2016-04-18T07:04:56.176Z,64.72
2016-04-18T07:05:56.210Z,64.81
2016-04-18T07:06:56.260Z,64.34
2016-04-18T07:07:56.122Z,63.89
2016-04-18T07:08:56.313Z,64.27
2016-04-18T07:09:56.205Z,64.18
2016-04-18T07:10:56.380Z,64.27
2016-04-18T07:11:56.413Z,64.27
2016-04-18T07:12:56.448Z,64.27
2016-04-18T07:13:56.481Z,64.18
2016-04-18T07:14:56.501Z,64.72
2016-04-18T07:15:56.549Z,65
2016-04-18T07:16:56.584Z,64.62
2016-04-18T07:17:56.617Z,64.46
2016-04-18T07:18:56.651Z,64.81
2016-04-18T07:19:56.669Z,64.81
2016-04-18T07:20:56.720Z,64.27
2016-04-18T07:21:56.744Z,64.18
2016-04-18T07:22:56.778Z,63.7
2016-04-18T07:23:56.813Z,63.6
2016-04-18T07:24:56.862Z,62.85
2016-04-18T07:25:56.880Z,63.51
2016-04-18T07:26:56.914Z,63.13
2016-04-18T07:27:56.949Z,63.13
2016-04-18T07:28:56.982Z,63.6
2016-04-18T07:29:57.016Z,63.13
2016-04-18T07:30:57.050Z,63.13
2016-04-18T07:31:57.084Z,63.04
2016-04-18T07:32:57.118Z,62.85
2016-04-18T07:33:57.136Z,61.8
2016-04-18T07:34:57.185Z,61.61
2016-04-18T07:35:57.204Z,61.8
2016-04-18T07:36:57.253Z,61.32
2016-04-18T07:37:57.287Z,61.71
2016-04-18T07:38:57.306Z,61.52
2016-04-18T07:39:57.214Z,61.32
2016-04-18T07:40:57.373Z,61.8
2016-04-18T07:41:57.407Z,61.42
2016-04-18T07:42:57.441Z,60.85
2016-04-18T07:43:57.475Z,60.57
2016-04-18T07:44:57.509Z,60.94
2016-04-18T07:45:57.542Z,60.66
2016-04-18T07:46:57.577Z,60.88
2016-04-18T07:47:57.611Z,60.5
2016-04-18T07:48:57.645Z,59.74
2016-04-18T07:49:57.679Z,58.88
2016-04-18T07:50:57.698Z,58.79
2016-04-18T07:51:57.731Z,58.88
2016-04-18T07:52:57.766Z,58.12
2016-04-18T07:53:57.814Z,57.65
2016-04-18T07:54:57.849Z,57.36
2016-04-18T07:55:57.882Z,56.15
2016-04-18T07:56:57.916Z,56.44
2016-04-18T07:57:57.950Z,56.15
2016-04-18T07:58:57.985Z,56.24
2016-04-18T07:59:58.018Z,56.63
2016-04-18T08:00:58.037Z,55.1
2016-04-18T08:01:58.085Z,55.29
2016-04-18T08:02:58.105Z,55.29
2016-04-18T08:03:58.138Z,54.72
2016-04-18T08:04:58.188Z,54.35
2016-04-18T08:05:58.206Z,54.15
2016-04-18T08:06:58.256Z,54.35
2016-04-18T08:07:58.274Z,53.87
2016-04-18T08:08:58.309Z,53.67
2016-04-18T08:09:58.342Z,52.92
2016-04-18T08:10:58.376Z,51.32
2016-04-18T08:11:58.409Z,49.73
2016-04-18T08:12:58.444Z,47.18
2016-04-18T08:13:58.478Z,46.15
2016-04-18T08:14:58.511Z,45.87
2016-04-18T08:15:58.545Z,45.78
2016-04-18T08:16:58.580Z,45.78
2016-04-18T08:17:58.629Z,45.97
2016-04-18T08:18:58.647Z,46.15
2016-04-18T08:19:58.698Z,45.68
2016-04-18T08:20:58.731Z,46.34
2016-04-18T08:21:58.765Z,46.34
2016-04-18T08:22:58.800Z,46.51
2016-04-18T08:23:58.850Z,46.34
2016-04-18T08:24:59.180Z,45.97
2016-04-18T08:25:58.916Z,45.56
2016-04-18T08:26:58.966Z,45.08
2016-04-18T08:27:58.999Z,44.44
2016-04-18T08:28:59.033Z,45.65
2016-04-18T08:29:59.083Z,45.47
2016-04-18T08:30:59.118Z,45.47
2016-04-18T08:31:59.136Z,45.37
2016-04-18T08:32:59.186Z,45.56
2016-04-18T08:33:59.219Z,44.7
2016-04-18T08:34:59.268Z,44.63
2016-04-18T08:35:59.303Z,43.1
2016-04-18T08:36:59.352Z,43.29
2016-04-18T08:37:59.371Z,42.34
2016-04-18T08:38:59.421Z,41.41
2016-04-18T08:39:59.454Z,41.12
2016-04-18T08:40:59.504Z,40.17
2016-04-18T08:41:59.537Z,39.32
2016-04-18T08:42:59.571Z,37.99
2016-04-18T08:43:59.621Z,36.87
2016-04-18T08:44:59.656Z,35.83
2016-04-18T08:45:59.689Z,34.13
2016-04-18T08:46:59.723Z,33.48
2016-04-18T08:47:59.772Z,32.81
2016-04-18T08:48:59.806Z,32.81
2016-04-18T08:49:59.840Z,32.92
2016-04-18T08:50:59.875Z,32.15
2016-04-18T08:51:59.909Z,31.87
2016-04-18T08:52:59.958Z,31.58
2016-04-18T08:53:59.992Z,31.18
2016-04-18T08:55:00.026Z,29.94
2016-04-18T08:56:00.060Z,30.41
2016-04-18T08:57:00.108Z,29.46
2016-04-18T08:58:00.143Z,28.97
2016-04-18T08:59:00.193Z,28.41
2016-04-18T09:00:00.210Z,28.98
2016-04-18T09:01:00.261Z,28.5
2016-04-18T09:02:00.294Z,27.75
2016-04-18T09:03:00.329Z,28.12
2016-04-18T09:04:00.377Z,28.41
2016-04-18T09:05:00.428Z,28.3
2016-04-18T09:06:00.477Z,29.06
2016-04-18T09:07:00.527Z,29.81
2016-04-18T09:08:00.546Z,30.77
2016-04-18T09:09:00.580Z,31.43
2016-04-18T09:10:00.612Z,31.99
2016-04-18T09:11:00.678Z,32.86
2016-04-18T09:12:00.713Z,33.71
2016-04-18T09:13:00.745Z,34.17
2016-04-18T09:14:00.780Z,35.13
2016-04-18T09:15:00.845Z,35.51
2016-04-18T09:16:00.879Z,35.89
2016-04-18T09:17:00.912Z,34.84
2016-04-18T09:18:00.962Z,35.02
2016-04-18T09:19:00.997Z,35.78
2016-04-18T09:20:01.031Z,35.59
2016-04-18T09:21:01.105Z,35.87
2016-04-18T09:22:01.181Z,35.02
2016-04-18T09:23:01.273Z,34.92
2016-04-18T09:24:01.365Z,34.54
2016-04-18T09:25:01.423Z,34.63
2016-04-18T09:26:01.499Z,34.92
2016-04-18T09:27:01.548Z,36.14
2016-04-18T09:28:01.599Z,35.76
2016-04-18T09:29:01.663Z,35.47
2016-04-18T09:30:01.713Z,35.19
2016-04-18T09:31:01.756Z,33.66
2016-04-18T09:32:01.811Z,31.76
2016-04-18T09:33:01.834Z,31.66
2016-04-18T09:34:01.904Z,31.95
2016-04-18T09:35:01.929Z,31.95
2016-04-18T09:36:01.966Z,31.66
2016-04-18T09:37:02.017Z,30.71
2016-04-18T09:38:02.054Z,31.85
2016-04-18T09:39:02.104Z,31.47
2016-04-18T09:40:02.125Z,30.32
2016-04-18T09:41:02.160Z,31.84
2016-04-18T09:42:02.211Z,31.85
2016-04-18T09:43:02.245Z,31.76
2016-04-18T09:44:02.279Z,31.85
2016-04-18T09:45:02.314Z,33.37
2016-04-18T09:46:02.349Z,33.28
2016-04-18T09:47:02.383Z,32.61
2016-04-18T09:48:02.417Z,32.61
2016-04-18T09:49:02.466Z,32.14
2016-04-18T09:50:02.499Z,31.95
2016-04-18T09:51:02.549Z,31.66
2016-04-18T09:52:02.552Z,31.18
2016-04-18T09:53:02.617Z,31.28
2016-04-18T09:54:02.635Z,31.66
2016-04-18T09:55:02.685Z,31.37
2016-04-18T09:56:02.735Z,31.85
2016-04-18T09:57:02.754Z,31.95
2016-04-18T09:58:02.787Z,32.71
2016-04-18T09:59:02.821Z,33.28
2016-04-18T10:00:02.871Z,33
2016-04-18T10:01:02.889Z,32.9
2016-04-18T10:02:02.923Z,33.76
2016-04-18T10:03:02.972Z,34.42
2016-04-18T10:04:02.990Z,34.23
2016-04-18T10:05:03.040Z,34.42
2016-04-18T10:06:03.059Z,33.57
2016-04-18T10:07:03.093Z,33.28
2016-04-18T10:08:03.142Z,33.09
2016-04-18T10:09:03.176Z,32.61
2016-04-18T10:10:03.211Z,31.85
2016-04-18T10:11:03.259Z,32.9
2016-04-18T10:12:03.294Z,33.28
2016-04-18T10:13:03.362Z,33.76
2016-04-18T10:14:03.349Z,34.23
2016-04-18T10:15:03.383Z,35.1
2016-04-18T10:16:03.433Z,34.92
2016-04-18T10:17:03.451Z,33.39
2016-04-18T10:18:03.500Z,33
2016-04-18T10:19:03.533Z,33.09
2016-04-18T10:20:03.583Z,32.71
2016-04-18T10:21:03.602Z,31.85
2016-04-18T10:22:03.652Z,32.42
2016-04-18T10:23:03.685Z,31.95
2016-04-18T10:24:03.704Z,31.85
2016-04-18T10:25:03.863Z,31.48
2016-04-18T10:26:03.771Z,31.66
2016-04-18T10:27:03.837Z,31.77
2016-04-18T10:28:03.840Z,31.39
2016-04-18T10:29:03.890Z,31.96
2016-04-18T10:30:03.938Z,31.87
2016-04-18T10:31:03.957Z,32.82
2016-04-18T10:32:03.990Z,32.81
2016-04-18T10:33:04.025Z,32.53
2016-04-18T10:34:04.059Z,31.87
2016-04-18T10:35:04.093Z,31.87
2016-04-18T10:36:03.987Z,31.96
2016-04-18T10:37:04.192Z,32.52
2016-04-18T10:38:04.210Z,32.24
2016-04-18T10:39:04.244Z,31.68
2016-04-18T10:40:04.295Z,31.2
2016-04-18T10:41:04.327Z,31.77
2016-04-18T10:42:04.345Z,31.96
2016-04-18T10:43:04.395Z,31.68
2016-04-18T10:44:04.430Z,31.77
2016-04-18T10:45:04.447Z,31.29
2016-04-18T10:46:04.482Z,30.43
2016-04-18T10:47:04.516Z,30.53
2016-04-18T10:48:04.550Z,30.24
2016-04-18T10:49:04.584Z,30.34
2016-04-18T10:50:04.634Z,29.38
2016-04-18T10:51:04.651Z,29.3
2016-04-18T10:52:04.701Z,30.07
2016-04-18T10:53:04.985Z,31.4
2016-04-18T10:54:04.957Z,31.88
2016-04-18T10:55:04.802Z,31.69
2016-04-18T10:56:04.837Z,31.98
2016-04-18T10:57:04.871Z,31.69
2016-04-18T10:58:04.904Z,31.6
2016-04-18T10:59:04.955Z,31.98
2016-04-18T11:00:04.988Z,31.88
2016-04-18T11:01:05.022Z,31.79
2016-04-18T11:02:05.056Z,32.17
2016-04-18T11:03:05.106Z,32.84
2016-04-18T11:04:05.248Z,31.5
2016-04-18T11:05:05.157Z,30.83
2016-04-18T11:06:05.223Z,30.55
2016-04-18T11:07:05.225Z,30.83
2016-04-18T11:08:05.259Z,31.04
2016-04-18T11:09:05.309Z,30.18
2016-04-18T11:10:05.343Z,30.37
2016-04-18T11:11:05.377Z,30.08
2016-04-18T11:12:05.426Z,29.13
2016-04-18T11:13:05.461Z,27.5
2016-04-18T11:14:05.510Z,28.17
2016-04-18T11:15:05.545Z,28.17
2016-04-18T11:16:05.562Z,28.75
2016-04-18T11:17:05.612Z,29.13
2016-04-18T11:18:05.630Z,28.36
2016-04-18T11:19:05.680Z,28.65
2016-04-18T11:20:05.730Z,28.75
2016-04-18T11:21:05.763Z,28.64
2016-04-18T11:22:05.783Z,29.11
2016-04-18T11:23:05.816Z,28.83
2016-04-18T11:24:05.866Z,29.21
2016-04-18T11:25:05.883Z,29.88
2016-04-18T11:26:05.964Z,30.26
2016-04-18T11:27:05.966Z,30.55
2016-04-18T11:28:06.002Z,30.35
2016-04-18T11:29:06.051Z,30.35
2016-04-18T11:30:06.099Z,30.35
2016-04-18T11:31:06.102Z,30.26
2016-04-18T11:32:06.137Z,30.18
2016-04-18T11:33:06.187Z,30.08
2016-04-18T11:34:06.221Z,29.89
2016-04-18T11:35:06.254Z,29.43
2016-04-18T11:36:06.303Z,29.13
2016-04-18T11:37:06.353Z,30.08
2016-04-18T11:38:06.200Z,30.18
2016-04-18T11:39:06.421Z,30.46
2016-04-18T11:40:06.440Z,30.56
2016-04-18T11:41:06.473Z,30.46
2016-04-18T11:42:06.507Z,29.61
2016-04-18T11:43:06.556Z,29.51
2016-04-18T11:44:06.606Z,29.03
2016-04-18T11:45:06.469Z,28.94
2016-04-18T11:46:06.659Z,28.36
2016-04-18T11:47:06.692Z,28.27
2016-04-18T11:48:06.758Z,28.27
2016-04-18T11:49:06.776Z,27.7
2016-04-18T11:50:06.810Z,27.5
2016-04-18T11:51:06.860Z,27.03
2016-04-18T11:52:06.878Z,27.31
2016-04-18T11:53:06.928Z,27.5
2016-04-18T11:54:06.947Z,28.09
2016-04-18T11:55:07.011Z,27.79
2016-04-18T11:56:07.030Z,28.65
2016-04-18T11:57:07.063Z,28.65
2016-04-18T11:58:07.097Z,29.41
2016-04-18T11:59:07.146Z,29.41
2016-04-18T12:00:07.165Z,28.94
2016-04-18T12:01:07.199Z,29.32
2016-04-18T12:02:07.249Z,28.94
2016-04-18T12:03:07.298Z,29.8
2016-04-18T12:04:07.333Z,30.75
2016-04-18T12:05:07.365Z,30.94
2016-04-18T12:06:07.400Z,31.42
2016-04-18T12:07:07.434Z,31.32
2016-04-18T12:08:07.484Z,31.42
2016-04-18T12:09:07.534Z,31.61
2016-04-18T12:10:07.551Z,31.8
2016-04-18T12:11:07.585Z,30.56
2016-04-18T12:12:07.635Z,30.08
2016-04-18T12:13:07.684Z,29.13
2016-04-18T12:14:07.718Z,28.94
2016-04-18T12:15:07.736Z,29.22
2016-04-18T12:16:07.786Z,29.51
2016-04-18T12:17:07.805Z,29.41
2016-04-18T12:18:07.869Z,30.08
2016-04-18T12:19:07.888Z,30.55
2016-04-18T12:20:07.906Z,30.66
2016-04-18T12:21:07.956Z,29.89
2016-04-18T12:22:08.005Z,29.81
2016-04-18T12:23:08.040Z,30.19
2016-04-18T12:24:08.057Z,30.38
2016-04-18T12:25:08.107Z,30.29
2016-04-18T12:26:08.142Z,30.67
2016-04-18T12:27:08.191Z,30.86
2016-04-18T12:28:08.225Z,31.34
2016-04-18T12:29:08.259Z,31.43
2016-04-18T12:30:08.277Z,31.63
2016-04-18T12:31:08.311Z,31.61
2016-04-18T12:32:08.361Z,31.9
2016-04-18T12:33:08.394Z,31.72
2016-04-18T12:34:08.429Z,31.8
2016-04-18T12:35:08.463Z,31.82
2016-04-18T12:36:08.527Z,31.51
2016-04-18T12:37:08.530Z,31.61
2016-04-18T12:38:08.596Z,31.99
2016-04-18T12:39:08.614Z,31.9
2016-04-18T12:40:08.648Z,32.09
2016-04-18T12:41:08.713Z,32.66
2016-04-18T12:42:08.747Z,32.95
2016-04-18T12:43:08.609Z,32.66
2016-04-18T12:44:08.815Z,32.84
2016-04-18T12:45:08.848Z,33.03
2016-04-18T12:46:08.883Z,33.7
2016-04-18T12:47:08.932Z,33.79
2016-04-18T12:48:08.967Z,33.89
2016-04-18T12:49:09.000Z,34.27
2016-04-18T12:50:09.034Z,33.79
2016-04-18T12:51:09.084Z,34.17
2016-04-18T12:52:09.117Z,33.79
2016-04-18T12:53:09.152Z,34.63
2016-04-18T12:54:09.185Z,34.55
2016-04-18T12:55:09.219Z,34.27
2016-04-18T12:56:09.238Z,34.27